sensor_id;sensor_type;location;lat;lon;timestamp;temperature;humidity
30865;DHT22;17574;49.418;11.038;2022-07-23T00:00:05;21.50;63.70
30865;DHT22;17574;49.418;11.038;2022-07-23T00:02:32;21.50;65.60
30865;DHT22;17574;49.418;11.038;2022-07-23T00:04:59;21.40;68.50
30865;DHT22;17574;49.418;11.038;2022-07-23T00:07:25;21.40;69.90
30865;DHT22;17574;49.418;11.038;2022-07-23T00:09:52;21.40;70.00
30865;DHT22;17574;49.418;11.038;2022-07-23T00:12:19;21.40;72.40
30865;DHT22;17574;49.418;11.038;2022-07-23T00:14:45;21.40;74.40
30865;DHT22;17574;49.418;11.038;2022-07-23T00:17:12;21.30;75.00
30865;DHT22;17574;49.418;11.038;2022-07-23T00:19:38;21.30;77.20
30865;DHT22;17574;49.418;11.038;2022-07-23T00:22:05;21.30;78.70
30865;DHT22;17574;49.418;11.038;2022-07-23T00:24:32;21.20;76.40
30865;DHT22;17574;49.418;11.038;2022-07-23T00:26:59;21.20;75.40
30865;DHT22;17574;49.418;11.038;2022-07-23T00:29:26;21.20;72.30
30865;DHT22;17574;49.418;11.038;2022-07-23T00:31:53;21.10;72.80
30865;DHT22;17574;49.418;11.038;2022-07-23T00:34:19;21.10;78.00
30865;DHT22;17574;49.418;11.038;2022-07-23T00:36:46;21.10;78.50
30865;DHT22;17574;49.418;11.038;2022-07-23T00:39:12;21.00;75.50
30865;DHT22;17574;49.418;11.038;2022-07-23T00:41:39;21.00;72.80
30865;DHT22;17574;49.418;11.038;2022-07-23T00:44:18;21.00;74.60
30865;DHT22;17574;49.418;11.038;2022-07-23T00:46:46;21.00;76.40
30865;DHT22;17574;49.418;11.038;2022-07-23T00:49:13;21.00;76.90
30865;DHT22;17574;49.418;11.038;2022-07-23T00:51:40;20.90;77.00
30865;DHT22;17574;49.418;11.038;2022-07-23T00:54:07;20.80;74.00
30865;DHT22;17574;49.418;11.038;2022-07-23T00:56:34;20.80;74.80
30865;DHT22;17574;49.418;11.038;2022-07-23T00:59:00;20.80;75.80
30865;DHT22;17574;49.418;11.038;2022-07-23T01:01:28;20.80;78.20
30865;DHT22;17574;49.418;11.038;2022-07-23T01:03:55;20.70;76.30
30865;DHT22;17574;49.418;11.038;2022-07-23T01:06:22;20.70;78.20
30865;DHT22;17574;49.418;11.038;2022-07-23T01:08:48;20.70;78.10
30865;DHT22;17574;49.418;11.038;2022-07-23T01:11:15;20.70;79.70
30865;DHT22;17574;49.418;11.038;2022-07-23T01:13:42;20.70;80.00
30865;DHT22;17574;49.418;11.038;2022-07-23T01:16:09;20.60;78.10
30865;DHT22;17574;49.418;11.038;2022-07-23T01:18:37;20.60;78.50
30865;DHT22;17574;49.418;11.038;2022-07-23T01:21:03;20.60;78.10
30865;DHT22;17574;49.418;11.038;2022-07-23T01:23:30;20.60;81.50
30865;DHT22;17574;49.418;11.038;2022-07-23T01:25:57;20.60;82.30
30865;DHT22;17574;49.418;11.038;2022-07-23T01:28:23;20.60;83.20
30865;DHT22;17574;49.418;11.038;2022-07-23T01:30:50;20.60;84.00
30865;DHT22;17574;49.418;11.038;2022-07-23T01:33:17;20.60;82.30
30865;DHT22;17574;49.418;11.038;2022-07-23T01:35:43;20.60;83.00
30865;DHT22;17574;49.418;11.038;2022-07-23T01:38:10;20.60;81.40
30865;DHT22;17574;49.418;11.038;2022-07-23T01:40:37;20.60;75.30
30865;DHT22;17574;49.418;11.038;2022-07-23T01:43:03;20.50;75.30
30865;DHT22;17574;49.418;11.038;2022-07-23T01:45:30;20.60;76.80
30865;DHT22;17574;49.418;11.038;2022-07-23T01:47:57;20.50;78.00
30865;DHT22;17574;49.418;11.038;2022-07-23T01:50:23;20.60;78.10
30865;DHT22;17574;49.418;11.038;2022-07-23T01:52:50;20.50;78.00
30865;DHT22;17574;49.418;11.038;2022-07-23T01:55:16;20.60;78.60
30865;DHT22;17574;49.418;11.038;2022-07-23T01:57:44;20.50;78.00
30865;DHT22;17574;49.418;11.038;2022-07-23T02:00:11;20.50;78.00
30865;DHT22;17574;49.418;11.038;2022-07-23T02:02:38;20.40;77.90
30865;DHT22;17574;49.418;11.038;2022-07-23T02:05:04;20.40;79.20
30865;DHT22;17574;49.418;11.038;2022-07-23T02:07:31;20.40;77.90
30865;DHT22;17574;49.418;11.038;2022-07-23T02:10:00;20.40;77.90
30865;DHT22;17574;49.418;11.038;2022-07-23T02:12:27;20.40;78.80
30865;DHT22;17574;49.418;11.038;2022-07-23T02:14:53;20.40;77.20
30865;DHT22;17574;49.418;11.038;2022-07-23T02:17:21;20.40;77.90
30865;DHT22;17574;49.418;11.038;2022-07-23T02:19:48;20.40;79.30
30865;DHT22;17574;49.418;11.038;2022-07-23T02:22:14;20.40;80.30
30865;DHT22;17574;49.418;11.038;2022-07-23T02:24:41;20.40;77.90
30865;DHT22;17574;49.418;11.038;2022-07-23T02:27:08;20.40;77.90
30865;DHT22;17574;49.418;11.038;2022-07-23T02:29:34;20.40;79.30
30865;DHT22;17574;49.418;11.038;2022-07-23T02:32:01;20.40;80.50
30865;DHT22;17574;49.418;11.038;2022-07-23T02:34:27;20.40;81.70
30865;DHT22;17574;49.418;11.038;2022-07-23T02:36:54;20.40;82.70
30865;DHT22;17574;49.418;11.038;2022-07-23T02:39:20;20.30;78.90
30865;DHT22;17574;49.418;11.038;2022-07-23T02:41:47;20.30;77.80
30865;DHT22;17574;49.418;11.038;2022-07-23T02:44:14;20.30;77.80
30865;DHT22;17574;49.418;11.038;2022-07-23T02:46:40;20.30;78.70
30865;DHT22;17574;49.418;11.038;2022-07-23T02:49:07;20.60;78.40
30865;DHT22;17574;49.418;11.038;2022-07-23T02:51:34;20.30;79.30
30865;DHT22;17574;49.418;11.038;2022-07-23T02:54:00;20.30;78.20
30865;DHT22;17574;49.418;11.038;2022-07-23T02:56:27;20.30;77.80
30865;DHT22;17574;49.418;11.038;2022-07-23T02:58:54;20.30;77.80
30865;DHT22;17574;49.418;11.038;2022-07-23T03:01:20;20.30;77.80
30865;DHT22;17574;49.418;11.038;2022-07-23T03:03:47;20.30;73.50
30865;DHT22;17574;49.418;11.038;2022-07-23T03:06:14;20.30;74.80
30865;DHT22;17574;49.418;11.038;2022-07-23T03:08:40;20.20;77.70
30865;DHT22;17574;49.418;11.038;2022-07-23T03:11:07;20.40;77.90
30865;DHT22;17574;49.418;11.038;2022-07-23T03:13:37;20.10;77.60
30865;DHT22;17574;49.418;11.038;2022-07-23T03:16:04;20.20;78.80
30865;DHT22;17574;49.418;11.038;2022-07-23T03:18:31;20.20;77.30
30865;DHT22;17574;49.418;11.038;2022-07-23T03:21:05;20.10;77.30
30865;DHT22;17574;49.418;11.038;2022-07-23T03:23:32;20.10;77.60
30865;DHT22;17574;49.418;11.038;2022-07-23T03:25:58;20.10;77.60
30865;DHT22;17574;49.418;11.038;2022-07-23T03:28:25;19.80;73.90
30865;DHT22;17574;49.418;11.038;2022-07-23T03:30:52;20.10;70.30
30865;DHT22;17574;49.418;11.038;2022-07-23T03:33:19;20.10;71.10
30865;DHT22;17574;49.418;11.038;2022-07-23T03:35:46;20.00;68.90
30865;DHT22;17574;49.418;11.038;2022-07-23T03:38:14;20.10;68.90
30865;DHT22;17574;49.418;11.038;2022-07-23T03:40:40;20.10;70.90
30865;DHT22;17574;49.418;11.038;2022-07-23T03:43:07;20.00;74.00
30865;DHT22;17574;49.418;11.038;2022-07-23T03:45:34;20.00;72.20
30865;DHT22;17574;49.418;11.038;2022-07-23T03:48:00;19.90;74.20
30865;DHT22;17574;49.418;11.038;2022-07-23T03:50:27;19.90;75.10
30865;DHT22;17574;49.418;11.038;2022-07-23T03:52:53;19.90;75.00
30865;DHT22;17574;49.418;11.038;2022-07-23T03:55:20;19.90;75.50
30865;DHT22;17574;49.418;11.038;2022-07-23T03:57:47;19.90;74.60
30865;DHT22;17574;49.418;11.038;2022-07-23T04:00:14;19.90;74.70
30865;DHT22;17574;49.418;11.038;2022-07-23T04:02:41;19.90;74.50
30865;DHT22;17574;49.418;11.038;2022-07-23T04:05:07;19.90;68.40
30865;DHT22;17574;49.418;11.038;2022-07-23T04:07:34;19.90;67.20
30865;DHT22;17574;49.418;11.038;2022-07-23T04:10:01;19.90;67.30
30865;DHT22;17574;49.418;11.038;2022-07-23T04:12:27;19.90;66.30
30865;DHT22;17574;49.418;11.038;2022-07-23T04:14:55;19.90;67.10
30865;DHT22;17574;49.418;11.038;2022-07-23T04:17:21;19.90;70.60
30865;DHT22;17574;49.418;11.038;2022-07-23T04:19:48;19.90;73.70
30865;DHT22;17574;49.418;11.038;2022-07-23T04:22:15;19.90;73.10
30865;DHT22;17574;49.418;11.038;2022-07-23T04:24:41;19.90;74.20
30865;DHT22;17574;49.418;11.038;2022-07-23T04:27:08;20.30;74.30
30865;DHT22;17574;49.418;11.038;2022-07-23T04:29:35;19.90;69.80
30865;DHT22;17574;49.418;11.038;2022-07-23T04:32:01;19.90;68.70
30865;DHT22;17574;49.418;11.038;2022-07-23T04:34:28;20.10;68.80
30865;DHT22;17574;49.418;11.038;2022-07-23T04:36:55;20.10;66.70
30865;DHT22;17574;49.418;11.038;2022-07-23T04:39:21;20.10;62.60
30865;DHT22;17574;49.418;11.038;2022-07-23T04:41:48;20.10;62.80
30865;DHT22;17574;49.418;11.038;2022-07-23T04:44:15;20.10;67.00
30865;DHT22;17574;49.418;11.038;2022-07-23T04:46:41;20.20;67.30
30865;DHT22;17574;49.418;11.038;2022-07-23T04:49:08;20.20;67.30
30865;DHT22;17574;49.418;11.038;2022-07-23T04:51:35;20.30;67.50
30865;DHT22;17574;49.418;11.038;2022-07-23T04:54:02;20.40;60.00
30865;DHT22;17574;49.418;11.038;2022-07-23T04:56:28;20.40;57.40
30865;DHT22;17574;49.418;11.038;2022-07-23T04:58:56;20.50;60.00
30865;DHT22;17574;49.418;11.038;2022-07-23T05:01:22;20.50;55.30
30865;DHT22;17574;49.418;11.038;2022-07-23T05:03:49;20.60;53.30
30865;DHT22;17574;49.418;11.038;2022-07-23T05:06:16;20.60;51.50
30865;DHT22;17574;49.418;11.038;2022-07-23T05:08:43;20.70;48.70
30865;DHT22;17574;49.418;11.038;2022-07-23T05:11:09;20.80;45.60
30865;DHT22;17574;49.418;11.038;2022-07-23T05:13:36;20.80;43.50
30865;DHT22;17574;49.418;11.038;2022-07-23T05:16:03;20.90;40.70
30865;DHT22;17574;49.418;11.038;2022-07-23T05:18:29;21.00;39.40
30865;DHT22;17574;49.418;11.038;2022-07-23T05:20:56;21.10;37.10
30865;DHT22;17574;49.418;11.038;2022-07-23T05:23:22;21.20;33.00
30865;DHT22;17574;49.418;11.038;2022-07-23T05:25:49;21.40;30.20
30865;DHT22;17574;49.418;11.038;2022-07-23T05:28:16;21.50;26.70
30865;DHT22;17574;49.418;11.038;2022-07-23T05:30:48;21.70;27.60
30865;DHT22;17574;49.418;11.038;2022-07-23T05:33:14;21.90;25.60
30865;DHT22;17574;49.418;11.038;2022-07-23T05:35:41;22.00;24.30
30865;DHT22;17574;49.418;11.038;2022-07-23T05:38:07;22.10;23.10
30865;DHT22;17574;49.418;11.038;2022-07-23T05:40:34;22.20;22.70
30865;DHT22;17574;49.418;11.038;2022-07-23T05:43:01;22.50;19.70
30865;DHT22;17574;49.418;11.038;2022-07-23T05:45:27;22.70;19.50
30865;DHT22;17574;49.418;11.038;2022-07-23T05:47:54;22.90;19.70
30865;DHT22;17574;49.418;11.038;2022-07-23T05:50:21;23.10;19.80
30865;DHT22;17574;49.418;11.038;2022-07-23T05:52:48;23.40;20.00
30865;DHT22;17574;49.418;11.038;2022-07-23T05:55:14;23.60;16.30
30865;DHT22;17574;49.418;11.038;2022-07-23T05:57:41;23.60;16.20
30865;DHT22;17574;49.418;11.038;2022-07-23T06:00:08;23.80;15.60
30865;DHT22;17574;49.418;11.038;2022-07-23T06:02:35;23.90;15.60
30865;DHT22;17574;49.418;11.038;2022-07-23T06:05:01;24.20;15.80
30865;DHT22;17574;49.418;11.038;2022-07-23T06:07:28;24.50;12.90
30865;DHT22;17574;49.418;11.038;2022-07-23T06:09:54;24.50;12.90
30865;DHT22;17574;49.418;11.038;2022-07-23T06:12:21;24.60;11.20
30865;DHT22;17574;49.418;11.038;2022-07-23T06:14:48;24.80;8.40
30865;DHT22;17574;49.418;11.038;2022-07-23T06:17:16;24.90;6.40
30865;DHT22;17574;49.418;11.038;2022-07-23T06:19:43;25.20;6.60
30865;DHT22;17574;49.418;11.038;2022-07-23T06:22:09;25.40;3.60
30865;DHT22;17574;49.418;11.038;2022-07-23T06:24:36;25.80;4.20
30865;DHT22;17574;49.418;11.038;2022-07-23T06:27:03;26.10;2.00
30865;DHT22;17574;49.418;11.038;2022-07-23T06:29:29;26.20;1.00
30865;DHT22;17574;49.418;11.038;2022-07-23T06:31:56;26.20;1.00
30865;DHT22;17574;49.418;11.038;2022-07-23T06:34:23;26.30;1.00
30865;DHT22;17574;49.418;11.038;2022-07-23T06:36:51;26.40;1.00
30865;DHT22;17574;49.418;11.038;2022-07-23T06:39:17;26.40;1.00
30865;DHT22;17574;49.418;11.038;2022-07-23T06:41:44;26.40;1.00
30865;DHT22;17574;49.418;11.038;2022-07-23T06:44:16;26.40;1.00
30865;DHT22;17574;49.418;11.038;2022-07-23T06:46:43;26.50;1.00
30865;DHT22;17574;49.418;11.038;2022-07-23T06:49:10;26.60;1.00
30865;DHT22;17574;49.418;11.038;2022-07-23T06:51:37;26.80;1.00
30865;DHT22;17574;49.418;11.038;2022-07-23T06:54:04;26.90;1.00
30865;DHT22;17574;49.418;11.038;2022-07-23T06:56:31;27.10;1.00
30865;DHT22;17574;49.418;11.038;2022-07-23T06:58:57;27.10;1.00
30865;DHT22;17574;49.418;11.038;2022-07-23T07:01:24;27.10;1.00
30865;DHT22;17574;49.418;11.038;2022-07-23T07:03:51;27.20;1.00
30865;DHT22;17574;49.418;11.038;2022-07-23T07:06:18;27.10;1.00
30865;DHT22;17574;49.418;11.038;2022-07-23T07:08:44;27.10;1.00
30865;DHT22;17574;49.418;11.038;2022-07-23T07:11:11;27.10;1.00
30865;DHT22;17574;49.418;11.038;2022-07-23T07:13:38;27.10;1.00
30865;DHT22;17574;49.418;11.038;2022-07-23T07:16:04;27.20;1.00
30865;DHT22;17574;49.418;11.038;2022-07-23T07:18:31;27.20;1.00
30865;DHT22;17574;49.418;11.038;2022-07-23T07:20:58;27.20;1.00
30865;DHT22;17574;49.418;11.038;2022-07-23T07:23:24;27.10;1.00
30865;DHT22;17574;49.418;11.038;2022-07-23T07:25:51;27.00;1.00
30865;DHT22;17574;49.418;11.038;2022-07-23T07:28:17;27.00;1.00
30865;DHT22;17574;49.418;11.038;2022-07-23T07:30:44;26.90;1.00
30865;DHT22;17574;49.418;11.038;2022-07-23T07:33:11;26.80;1.00
30865;DHT22;17574;49.418;11.038;2022-07-23T07:35:37;26.60;1.00
30865;DHT22;17574;49.418;11.038;2022-07-23T07:38:04;26.60;1.00
30865;DHT22;17574;49.418;11.038;2022-07-23T07:40:31;26.60;1.00
30865;DHT22;17574;49.418;11.038;2022-07-23T07:43:00;26.50;1.00
30865;DHT22;17574;49.418;11.038;2022-07-23T07:45:28;26.50;1.00
30865;DHT22;17574;49.418;11.038;2022-07-23T07:47:54;26.40;1.00
30865;DHT22;17574;49.418;11.038;2022-07-23T07:50:21;26.40;1.00
30865;DHT22;17574;49.418;11.038;2022-07-23T07:52:48;26.40;1.00
30865;DHT22;17574;49.418;11.038;2022-07-23T07:55:14;26.50;1.00
30865;DHT22;17574;49.418;11.038;2022-07-23T07:57:43;26.60;1.00
30865;DHT22;17574;49.418;11.038;2022-07-23T08:00:15;26.60;1.00
30865;DHT22;17574;49.418;11.038;2022-07-23T08:02:45;26.70;1.00
30865;DHT22;17574;49.418;11.038;2022-07-23T08:05:13;26.90;1.00
30865;DHT22;17574;49.418;11.038;2022-07-23T08:07:40;27.30;1.00
30865;DHT22;17574;49.418;11.038;2022-07-23T08:10:07;28.10;1.00
30865;DHT22;17574;49.418;11.038;2022-07-23T08:12:45;28.40;1.00
30865;DHT22;17574;49.418;11.038;2022-07-23T08:15:12;28.40;1.00
30865;DHT22;17574;49.418;11.038;2022-07-23T08:17:40;28.40;1.00
30865;DHT22;17574;49.418;11.038;2022-07-23T08:20:07;28.20;1.00
30865;DHT22;17574;49.418;11.038;2022-07-23T08:25:16;28.30;1.00
30865;DHT22;17574;49.418;11.038;2022-07-23T08:27:42;28.30;1.00
30865;DHT22;17574;49.418;11.038;2022-07-23T08:30:09;28.10;1.00
30865;DHT22;17574;49.418;11.038;2022-07-23T08:35:21;27.90;1.00
30865;DHT22;17574;49.418;11.038;2022-07-23T08:37:48;27.60;1.00
30865;DHT22;17574;49.418;11.038;2022-07-23T08:40:14;27.40;1.00
30865;DHT22;17574;49.418;11.038;2022-07-23T08:42:41;27.20;1.00
30865;DHT22;17574;49.418;11.038;2022-07-23T08:45:08;27.00;1.00
30865;DHT22;17574;49.418;11.038;2022-07-23T08:47:36;26.80;1.00
30865;DHT22;17574;49.418;11.038;2022-07-23T08:50:04;26.50;1.00
30865;DHT22;17574;49.418;11.038;2022-07-23T08:52:33;26.40;1.00
30865;DHT22;17574;49.418;11.038;2022-07-23T08:55:00;26.30;1.00
30865;DHT22;17574;49.418;11.038;2022-07-23T08:57:27;26.20;1.00
30865;DHT22;17574;49.418;11.038;2022-07-23T08:59:54;26.00;1.00
30865;DHT22;17574;49.418;11.038;2022-07-23T09:02:20;25.90;2.00
30865;DHT22;17574;49.418;11.038;2022-07-23T09:04:47;25.60;6.90
30865;DHT22;17574;49.418;11.038;2022-07-23T09:07:14;25.30;11.70
30865;DHT22;17574;49.418;11.038;2022-07-23T09:09:41;25.00;11.50
30865;DHT22;17574;49.418;11.038;2022-07-23T09:12:09;24.60;14.10
30865;DHT22;17574;49.418;11.038;2022-07-23T09:14:43;24.30;16.20
30865;DHT22;17574;49.418;11.038;2022-07-23T09:17:17;24.30;20.80
30865;DHT22;17574;49.418;11.038;2022-07-23T09:19:44;23.80;21.70
30865;DHT22;17574;49.418;11.038;2022-07-23T09:30:16;22.50;33.40
30865;DHT22;17574;49.418;11.038;2022-07-23T09:32:43;22.30;34.00
30865;DHT22;17574;49.418;11.038;2022-07-23T09:35:09;22.40;36.40
30865;DHT22;17574;49.418;11.038;2022-07-23T09:37:36;22.20;38.30
30865;DHT22;17574;49.418;11.038;2022-07-23T09:40:07;22.00;39.50
30865;DHT22;17574;49.418;11.038;2022-07-23T09:42:34;22.10;40.60
30865;DHT22;17574;49.418;11.038;2022-07-23T09:45:01;22.10;46.00
30865;DHT22;17574;49.418;11.038;2022-07-23T09:47:29;22.10;46.90
30865;DHT22;17574;49.418;11.038;2022-07-23T09:50:06;22.10;47.80
30865;DHT22;17574;49.418;11.038;2022-07-23T09:52:36;22.00;50.70
30865;DHT22;17574;49.418;11.038;2022-07-23T09:55:07;22.10;52.50
30865;DHT22;17574;49.418;11.038;2022-07-23T09:57:34;22.00;49.70
30865;DHT22;17574;49.418;11.038;2022-07-23T10:00:02;22.00;50.70
30865;DHT22;17574;49.418;11.038;2022-07-23T10:02:31;22.10;51.00
30865;DHT22;17574;49.418;11.038;2022-07-23T10:04:58;22.00;54.80
30865;DHT22;17574;49.418;11.038;2022-07-23T10:07:26;22.00;53.90
30865;DHT22;17574;49.418;11.038;2022-07-23T10:09:53;22.10;55.90
30865;DHT22;17574;49.418;11.038;2022-07-23T10:12:20;22.10;53.80
30865;DHT22;17574;49.418;11.038;2022-07-23T10:15:01;22.20;50.90
30865;DHT22;17574;49.418;11.038;2022-07-23T10:17:28;22.10;56.70
30865;DHT22;17574;49.418;11.038;2022-07-23T10:19:55;22.20;56.40
30865;DHT22;17574;49.418;11.038;2022-07-23T10:22:29;22.10;53.00
30865;DHT22;17574;49.418;11.038;2022-07-23T10:25:08;22.10;52.50
30865;DHT22;17574;49.418;11.038;2022-07-23T10:30:34;22.20;50.90
30865;DHT22;17574;49.418;11.038;2022-07-23T10:33:09;22.30;51.10
30865;DHT22;17574;49.418;11.038;2022-07-23T10:35:49;22.40;52.20
30865;DHT22;17574;49.418;11.038;2022-07-23T10:38:20;22.40;57.40
30865;DHT22;17574;49.418;11.038;2022-07-23T10:40:53;22.40;59.40
30865;DHT22;17574;49.418;11.038;2022-07-23T10:43:20;22.40;56.80
30865;DHT22;17574;49.418;11.038;2022-07-23T10:45:47;22.40;56.10
30865;DHT22;17574;49.418;11.038;2022-07-23T10:48:19;22.20;55.90
30865;DHT22;17574;49.418;11.038;2022-07-23T10:51:05;22.20;59.20
30865;DHT22;17574;49.418;11.038;2022-07-23T10:59:03;22.80;55.50
30865;DHT22;17574;49.418;11.038;2022-07-23T11:01:37;23.00;53.90
30865;DHT22;17574;49.418;11.038;2022-07-23T11:04:04;23.10;53.20
30865;DHT22;17574;49.418;11.038;2022-07-23T11:17:24;22.80;57.40
30865;DHT22;17574;49.418;11.038;2022-07-23T11:25:03;23.20;55.10
30865;DHT22;17574;49.418;11.038;2022-07-23T11:27:39;23.30;52.00
30865;DHT22;17574;49.418;11.038;2022-07-23T11:30:09;23.40;52.10
30865;DHT22;17574;49.418;11.038;2022-07-23T11:32:37;23.50;48.60
30865;DHT22;17574;49.418;11.038;2022-07-23T11:35:21;23.40;44.10
30865;DHT22;17574;49.418;11.038;2022-07-23T11:37:49;23.50;48.70
30865;DHT22;17574;49.418;11.038;2022-07-23T11:40:18;23.70;50.50
30865;DHT22;17574;49.418;11.038;2022-07-23T11:42:51;23.90;43.60
30865;DHT22;17574;49.418;11.038;2022-07-23T11:45:18;24.10;43.20
30865;DHT22;17574;49.418;11.038;2022-07-23T11:47:45;24.60;42.10
30865;DHT22;17574;49.418;11.038;2022-07-23T11:50:11;25.40;35.90
30865;DHT22;17574;49.418;11.038;2022-07-23T11:52:39;26.30;25.70
30865;DHT22;17574;49.418;11.038;2022-07-23T11:55:07;27.40;14.40
30865;DHT22;17574;49.418;11.038;2022-07-23T11:57:35;28.40;8.50
30865;DHT22;17574;49.418;11.038;2022-07-23T12:00:06;29.10;4.40
30865;DHT22;17574;49.418;11.038;2022-07-23T12:02:34;29.90;1.00
30865;DHT22;17574;49.418;11.038;2022-07-23T12:05:01;30.50;1.00
30865;DHT22;17574;49.418;11.038;2022-07-23T12:07:32;31.00;1.00
30865;DHT22;17574;49.418;11.038;2022-07-23T12:10:00;31.20;1.00
30865;DHT22;17574;49.418;11.038;2022-07-23T12:12:26;31.00;1.00
30865;DHT22;17574;49.418;11.038;2022-07-23T12:14:54;31.30;1.00
30865;DHT22;17574;49.418;11.038;2022-07-23T12:17:22;31.30;1.00
30865;DHT22;17574;49.418;11.038;2022-07-23T12:19:53;31.50;1.00
30865;DHT22;17574;49.418;11.038;2022-07-23T12:22:20;32.40;1.00
30865;DHT22;17574;49.418;11.038;2022-07-23T12:24:56;32.40;1.00
30865;DHT22;17574;49.418;11.038;2022-07-23T12:27:23;32.40;1.00
30865;DHT22;17574;49.418;11.038;2022-07-23T12:29:50;32.40;1.00
30865;DHT22;17574;49.418;11.038;2022-07-23T12:32:21;32.60;1.00
30865;DHT22;17574;49.418;11.038;2022-07-23T12:34:49;32.70;1.00
30865;DHT22;17574;49.418;11.038;2022-07-23T12:37:27;32.60;1.00
30865;DHT22;17574;49.418;11.038;2022-07-23T12:39:53;33.20;1.00
30865;DHT22;17574;49.418;11.038;2022-07-23T12:42:20;33.50;1.00
30865;DHT22;17574;49.418;11.038;2022-07-23T12:45:05;33.30;1.00
30865;DHT22;17574;49.418;11.038;2022-07-23T12:55:31;32.70;1.00
30865;DHT22;17574;49.418;11.038;2022-07-23T12:58:19;33.10;1.00
30865;DHT22;17574;49.418;11.038;2022-07-23T13:01:00;33.20;1.00
30865;DHT22;17574;49.418;11.038;2022-07-23T13:03:32;33.30;1.00
30865;DHT22;17574;49.418;11.038;2022-07-23T13:06:05;33.30;1.00
30865;DHT22;17574;49.418;11.038;2022-07-23T13:08:32;33.10;1.00
30865;DHT22;17574;49.418;11.038;2022-07-23T13:11:00;32.80;1.00
30865;DHT22;17574;49.418;11.038;2022-07-23T13:13:28;32.50;1.00
30865;DHT22;17574;49.418;11.038;2022-07-23T13:15:56;32.40;1.00
30865;DHT22;17574;49.418;11.038;2022-07-23T13:18:24;32.40;1.00
30865;DHT22;17574;49.418;11.038;2022-07-23T13:20:51;32.20;1.00
30865;DHT22;17574;49.418;11.038;2022-07-23T13:23:17;32.70;1.00
30865;DHT22;17574;49.418;11.038;2022-07-23T13:25:45;33.30;1.00
30865;DHT22;17574;49.418;11.038;2022-07-23T13:28:12;33.70;1.00
30865;DHT22;17574;49.418;11.038;2022-07-23T13:30:39;34.10;1.00
30865;DHT22;17574;49.418;11.038;2022-07-23T13:33:06;34.60;1.00
30865;DHT22;17574;49.418;11.038;2022-07-23T13:35:34;34.80;1.00
30865;DHT22;17574;49.418;11.038;2022-07-23T13:38:01;34.70;1.00
30865;DHT22;17574;49.418;11.038;2022-07-23T13:40:28;34.70;1.00
30865;DHT22;17574;49.418;11.038;2022-07-23T13:42:54;34.50;1.00
30865;DHT22;17574;49.418;11.038;2022-07-23T13:45:21;34.50;1.00
30865;DHT22;17574;49.418;11.038;2022-07-23T13:47:55;34.70;1.00
30865;DHT22;17574;49.418;11.038;2022-07-23T13:50:22;34.80;1.00
30865;DHT22;17574;49.418;11.038;2022-07-23T13:52:48;35.20;1.00
30865;DHT22;17574;49.418;11.038;2022-07-23T13:55:15;34.90;1.00
30865;DHT22;17574;49.418;11.038;2022-07-23T13:57:43;33.80;1.00
30865;DHT22;17574;49.418;11.038;2022-07-23T14:00:10;33.50;1.00
30865;DHT22;17574;49.418;11.038;2022-07-23T14:02:58;33.30;1.00
30865;DHT22;17574;49.418;11.038;2022-07-23T14:05:25;33.10;1.00
30865;DHT22;17574;49.418;11.038;2022-07-23T14:07:52;33.20;1.00
30865;DHT22;17574;49.418;11.038;2022-07-23T14:10:21;33.80;1.00
30865;DHT22;17574;49.418;11.038;2022-07-23T14:12:49;34.20;1.00
30865;DHT22;17574;49.418;11.038;2022-07-23T14:15:17;34.10;1.00
30865;DHT22;17574;49.418;11.038;2022-07-23T14:17:45;33.90;1.00
30865;DHT22;17574;49.418;11.038;2022-07-23T14:20:13;33.50;1.00
30865;DHT22;17574;49.418;11.038;2022-07-23T14:22:40;33.10;1.00
30865;DHT22;17574;49.418;11.038;2022-07-23T14:25:07;32.70;1.00
30865;DHT22;17574;49.418;11.038;2022-07-23T14:27:34;32.60;1.00
30865;DHT22;17574;49.418;11.038;2022-07-23T14:30:02;32.50;1.00
30865;DHT22;17574;49.418;11.038;2022-07-23T14:32:30;32.30;1.00
30865;DHT22;17574;49.418;11.038;2022-07-23T14:34:56;32.00;1.00
30865;DHT22;17574;49.418;11.038;2022-07-23T14:37:24;31.70;1.00
30865;DHT22;17574;49.418;11.038;2022-07-23T14:39:51;31.40;1.00
30865;DHT22;17574;49.418;11.038;2022-07-23T14:42:18;31.30;1.00
30865;DHT22;17574;49.418;11.038;2022-07-23T14:44:45;31.10;1.00
30865;DHT22;17574;49.418;11.038;2022-07-23T14:47:12;31.30;1.00
30865;DHT22;17574;49.418;11.038;2022-07-23T14:49:46;31.60;1.00
30865;DHT22;17574;49.418;11.038;2022-07-23T14:52:14;31.80;1.00
30865;DHT22;17574;49.418;11.038;2022-07-23T14:54:41;31.80;1.00
30865;DHT22;17574;49.418;11.038;2022-07-23T14:57:08;32.00;1.00
30865;DHT22;17574;49.418;11.038;2022-07-23T14:59:36;32.10;1.00
30865;DHT22;17574;49.418;11.038;2022-07-23T15:02:03;32.00;1.00
30865;DHT22;17574;49.418;11.038;2022-07-23T15:04:30;31.90;1.00
30865;DHT22;17574;49.418;11.038;2022-07-23T15:07:04;31.70;1.00
30865;DHT22;17574;49.418;11.038;2022-07-23T15:09:31;31.60;1.00
30865;DHT22;17574;49.418;11.038;2022-07-23T15:11:58;31.40;1.00
30865;DHT22;17574;49.418;11.038;2022-07-23T15:14:24;31.30;1.00
30865;DHT22;17574;49.418;11.038;2022-07-23T15:16:57;31.20;1.00
30865;DHT22;17574;49.418;11.038;2022-07-23T15:19:25;31.20;1.00
30865;DHT22;17574;49.418;11.038;2022-07-23T15:21:51;30.90;1.00
30865;DHT22;17574;49.418;11.038;2022-07-23T15:24:18;31.00;1.00
30865;DHT22;17574;49.418;11.038;2022-07-23T15:26:45;30.90;1.00
30865;DHT22;17574;49.418;11.038;2022-07-23T15:29:12;30.80;1.00
30865;DHT22;17574;49.418;11.038;2022-07-23T15:31:38;30.70;1.00
30865;DHT22;17574;49.418;11.038;2022-07-23T15:34:05;30.50;1.00
30865;DHT22;17574;49.418;11.038;2022-07-23T15:36:32;30.50;1.00
30865;DHT22;17574;49.418;11.038;2022-07-23T15:39:01;30.50;1.00
30865;DHT22;17574;49.418;11.038;2022-07-23T15:41:28;30.50;1.00
30865;DHT22;17574;49.418;11.038;2022-07-23T15:43:55;30.40;1.00
30865;DHT22;17574;49.418;11.038;2022-07-23T15:46:22;30.70;1.00
30865;DHT22;17574;49.418;11.038;2022-07-23T15:48:53;30.70;1.00
30865;DHT22;17574;49.418;11.038;2022-07-23T15:51:19;30.80;1.00
30865;DHT22;17574;49.418;11.038;2022-07-23T15:53:46;31.00;1.00
30865;DHT22;17574;49.418;11.038;2022-07-23T15:56:14;31.00;1.00
30865;DHT22;17574;49.418;11.038;2022-07-23T15:58:42;30.80;1.00
30865;DHT22;17574;49.418;11.038;2022-07-23T16:01:10;30.70;1.00
30865;DHT22;17574;49.418;11.038;2022-07-23T16:03:37;30.70;1.00
30865;DHT22;17574;49.418;11.038;2022-07-23T16:06:04;30.60;1.00
30865;DHT22;17574;49.418;11.038;2022-07-23T16:08:42;30.30;1.00
30865;DHT22;17574;49.418;11.038;2022-07-23T16:11:09;30.30;1.00